createdAt,value
2022-12-28T00:02:28.961Z,1.40
2022-12-28T00:04:58.733Z,1.40
2022-12-28T00:07:27.343Z,1.50
2022-12-28T00:09:55.684Z,1.50
2022-12-28T00:12:24.165Z,1.50
2022-12-28T00:14:52.547Z,1.60
2022-12-28T00:17:20.899Z,1.60
2022-12-28T00:19:49.192Z,1.60
2022-12-28T00:22:18.880Z,1.60
2022-12-28T00:24:47.200Z,1.60
2022-12-28T00:27:15.571Z,1.60
2022-12-28T00:29:43.881Z,1.60
2022-12-28T00:32:12.271Z,1.50
2022-12-28T00:34:40.570Z,1.50
2022-12-28T00:37:12.898Z,1.50
2022-12-28T00:39:43.871Z,1.50
2022-12-28T00:42:16.609Z,1.40
2022-12-28T00:44:45.118Z,1.40
2022-12-28T00:47:13.437Z,1.40
2022-12-28T00:49:41.773Z,1.30
2022-12-28T00:52:10.104Z,1.30
2022-12-28T00:54:38.583Z,1.20
2022-12-28T00:57:08.191Z,1.20
2022-12-28T00:59:36.590Z,1.10
2022-12-28T01:02:05.057Z,1.10
2022-12-28T01:04:33.481Z,1.00
2022-12-28T01:07:01.828Z,1.00
2022-12-28T01:09:32.699Z,1.00
2022-12-28T01:12:01.073Z,0.90
2022-12-28T01:14:30.693Z,0.90
2022-12-28T01:16:59.089Z,0.90
2022-12-28T01:19:27.534Z,0.90
2022-12-28T01:21:58.025Z,0.90
2022-12-28T01:24:26.405Z,0.90
2022-12-28T01:26:54.860Z,0.90
2022-12-28T01:29:23.225Z,0.90
2022-12-28T01:31:53.113Z,0.90
2022-12-28T01:34:21.621Z,0.90
2022-12-28T01:36:50.036Z,0.90
2022-12-28T01:39:18.399Z,1.00
2022-12-28T01:41:46.814Z,1.00
2022-12-28T01:44:40.802Z,1.00
2022-12-28T01:47:17.170Z,1.00
2022-12-28T01:49:53.159Z,1.00
2022-12-28T01:52:26.042Z,1.00
2022-12-28T01:54:58.679Z,1.00
2022-12-28T01:57:30.554Z,1.00
2022-12-28T02:00:03.325Z,1.00
2022-12-28T02:02:46.811Z,1.00
2022-12-28T02:05:16.757Z,1.00
2022-12-28T02:07:53.922Z,1.00
2022-12-28T02:10:42.593Z,1.00
2022-12-28T02:13:13.711Z,1.00
2022-12-28T02:15:41.999Z,0.90
2022-12-28T02:18:13.249Z,0.90
2022-12-28T02:20:52.775Z,0.90
2022-12-28T02:24:00.039Z,0.90
2022-12-28T02:26:52.272Z,0.90
2022-12-28T02:29:35.309Z,0.90
2022-12-28T02:32:16.595Z,0.90
2022-12-28T02:34:50.327Z,0.80
2022-12-28T02:37:24.103Z,0.80
2022-12-28T02:39:56.379Z,0.80
2022-12-28T02:42:26.520Z,0.80
2022-12-28T02:45:14.177Z,0.70
2022-12-28T02:48:01.042Z,0.70
2022-12-28T02:50:39.769Z,0.70
2022-12-28T02:53:46.619Z,0.70
2022-12-28T02:56:28.594Z,0.60
2022-12-28T02:59:24.909Z,0.60
2022-12-28T03:02:18.675Z,0.60
2022-12-28T03:04:59.269Z,0.50
2022-12-28T03:07:51.537Z,0.40
2022-12-28T03:10:25.641Z,0.40
2022-12-28T03:12:59.810Z,0.30
2022-12-28T03:15:32.050Z,0.30
2022-12-28T03:18:24.501Z,0.20
2022-12-28T03:21:14.091Z,0.20
2022-12-28T03:24:03.340Z,0.10
2022-12-28T03:26:54.693Z,0.10
2022-12-28T03:29:43.977Z,0.00
2022-12-28T03:32:13.241Z,-0.10
2022-12-28T03:34:43.982Z,-0.10
2022-12-28T03:37:18.285Z,-0.20
2022-12-28T03:39:52.188Z,-0.20
2022-12-28T03:42:45.657Z,-0.20
2022-12-28T03:45:45.445Z,-0.30
2022-12-28T03:48:11.539Z,-0.30
2022-12-28T03:50:44.260Z,-0.30
2022-12-28T03:53:16.456Z,-0.40
2022-12-28T03:55:45.620Z,-0.40
2022-12-28T03:58:16.296Z,-0.40
2022-12-28T04:00:44.840Z,-0.50
2022-12-28T04:03:14.536Z,-0.50
2022-12-28T04:05:44.299Z,-0.50
2022-12-28T04:08:12.660Z,-0.60
2022-12-28T04:10:41.319Z,-0.60
2022-12-28T04:13:10.663Z,-0.60
2022-12-28T04:15:56.819Z,-0.70
2022-12-28T04:18:25.305Z,-0.70
2022-12-28T04:20:55.648Z,-0.70
2022-12-28T04:23:24.122Z,-0.80
2022-12-28T04:26:04.773Z,-0.80
2022-12-28T04:28:35.268Z,-0.80
2022-12-28T04:31:22.190Z,-0.80
2022-12-28T04:34:12.964Z,-0.80
2022-12-28T04:37:02.902Z,-0.90
2022-12-28T04:39:56.068Z,-0.90
2022-12-28T04:42:19.699Z,-0.90
2022-12-28T04:44:48.052Z,-0.90
2022-12-28T04:47:16.426Z,-0.90
2022-12-28T04:49:44.777Z,-0.90
2022-12-28T04:52:14.508Z,-0.90
2022-12-28T04:54:42.890Z,-0.90
2022-12-28T04:57:11.251Z,-0.90
2022-12-28T04:59:40.512Z,-0.90
2022-12-28T05:02:09.178Z,-0.90
2022-12-28T05:04:37.639Z,-0.80
2022-12-28T05:07:05.992Z,-0.80
2022-12-28T05:09:35.636Z,-0.80
2022-12-28T05:12:03.992Z,-0.70
2022-12-28T05:14:36.744Z,-0.70
2022-12-28T05:17:05.666Z,-0.70
2022-12-28T05:19:33.955Z,-0.70
2022-12-28T05:22:02.373Z,-0.60
2022-12-28T05:24:30.805Z,-0.60
2022-12-28T05:27:01.662Z,-0.60
2022-12-28T05:29:30.095Z,-0.60
2022-12-28T05:31:58.439Z,-0.60
2022-12-28T05:34:26.753Z,-0.60
2022-12-28T05:36:55.125Z,-0.60
2022-12-28T05:39:24.309Z,-0.60
2022-12-28T05:41:52.638Z,-0.60
2022-12-28T05:44:22.324Z,-0.70
2022-12-28T05:46:50.782Z,-0.70
2022-12-28T05:49:19.199Z,-0.70
2022-12-28T05:51:49.631Z,-0.80
2022-12-28T05:54:18.017Z,-0.80
2022-12-28T05:56:46.778Z,-0.90
2022-12-28T05:59:15.111Z,-0.90
2022-12-28T06:01:46.385Z,-1.00
2022-12-28T06:04:17.775Z,-1.00
2022-12-28T06:06:46.825Z,-1.10
2022-12-28T06:09:15.482Z,-1.10
2022-12-28T06:11:44.338Z,-1.10
2022-12-28T06:14:12.669Z,-1.20
2022-12-28T06:16:43.207Z,-1.20
2022-12-28T06:19:14.863Z,-1.20
2022-12-28T06:21:43.506Z,-1.30
2022-12-28T06:24:13.964Z,-1.30
2022-12-28T06:26:43.020Z,-1.30
2022-12-28T06:29:11.669Z,-1.30
2022-12-28T06:31:42.142Z,-1.40
2022-12-28T06:34:12.637Z,-1.40
2022-12-28T06:36:42.252Z,-1.40
2022-12-28T06:39:12.587Z,-1.40
2022-12-28T06:41:41.600Z,-1.40
2022-12-28T06:44:11.540Z,-1.40
2022-12-28T06:46:40.187Z,-1.40
2022-12-28T06:49:09.027Z,-1.40
2022-12-28T06:51:42.051Z,-1.30
2022-12-28T06:54:11.163Z,-1.30
2022-12-28T06:56:39.784Z,-1.30
2022-12-28T06:59:08.266Z,-1.20
2022-12-28T07:01:38.872Z,-1.20
2022-12-28T07:04:09.558Z,-1.10
2022-12-28T07:06:41.562Z,-0.90
2022-12-28T07:09:12.294Z,-0.80
2022-12-28T07:11:40.906Z,-0.40
2022-12-28T07:14:09.529Z,0.10
2022-12-28T07:19:05.182Z,1.40
2022-12-28T07:21:35.925Z,2.10
2022-12-28T07:24:07.145Z,2.80
2022-12-28T07:26:37.848Z,3.50
2022-12-28T07:29:07.756Z,4.00
2022-12-28T07:31:44.169Z,4.40
2022-12-28T07:34:13.819Z,4.70
2022-12-28T07:36:42.145Z,4.90
2022-12-28T07:39:11.885Z,5.00
2022-12-28T07:41:40.271Z,5.20
2022-12-28T07:44:08.724Z,5.40
2022-12-28T07:46:38.397Z,5.60
2022-12-28T07:49:07.006Z,5.80
2022-12-28T07:51:37.205Z,6.10
2022-12-28T07:54:06.737Z,6.50
2022-12-28T07:59:06.366Z,7.20
2022-12-28T08:01:36.497Z,7.50
2022-12-28T08:04:07.033Z,7.70
2022-12-28T08:06:37.019Z,7.90
2022-12-28T08:09:06.513Z,8.00
2022-12-28T08:11:39.273Z,8.20
2022-12-28T08:14:08.777Z,8.40
2022-12-28T08:16:39.730Z,8.70
2022-12-28T08:19:09.197Z,8.70
2022-12-28T08:21:39.223Z,8.80
2022-12-28T08:24:08.631Z,8.70
2022-12-28T08:26:39.848Z,8.60
2022-12-28T08:29:10.441Z,8.60
2022-12-28T08:31:41.638Z,8.80
2022-12-28T08:34:12.893Z,9.00
2022-12-28T08:36:41.259Z,9.20
2022-12-28T08:39:10.048Z,9.30
2022-12-28T08:41:39.749Z,9.30
2022-12-28T08:44:08.356Z,9.20
2022-12-28T08:46:38.252Z,9.00
2022-12-28T08:49:06.984Z,8.80
2022-12-28T08:51:37.087Z,8.60
2022-12-28T08:54:05.704Z,8.30
2022-12-28T08:56:36.747Z,7.90
2022-12-28T08:59:07.602Z,7.60
2022-12-28T09:01:43.799Z,7.20
2022-12-28T09:04:16.003Z,6.80
2022-12-28T09:06:44.678Z,6.50
2022-12-28T09:09:15.866Z,6.40
2022-12-28T09:11:45.083Z,6.40
2022-12-28T09:14:22.632Z,6.70
2022-12-28T09:16:52.312Z,7.10
2022-12-28T09:19:21.067Z,7.60
2022-12-28T09:21:52.711Z,8.10
2022-12-28T09:24:22.068Z,8.70
2022-12-28T09:26:52.810Z,9.20
2022-12-28T09:29:22.838Z,9.70
2022-12-28T09:31:51.210Z,10.20
2022-12-28T09:34:37.284Z,10.60
2022-12-28T09:37:06.547Z,11.00
2022-12-28T09:39:35.254Z,11.20
2022-12-28T09:42:06.152Z,11.10
2022-12-28T09:44:50.939Z,11.10
2022-12-28T09:47:29.564Z,11.10
2022-12-28T09:50:06.277Z,11.20
2022-12-28T09:52:37.895Z,11.00
2022-12-28T09:55:12.763Z,10.70
2022-12-28T09:57:45.821Z,10.20
2022-12-28T10:00:20.269Z,9.70
2022-12-28T10:02:53.079Z,9.10
2022-12-28T10:05:22.853Z,8.50
2022-12-28T10:07:52.459Z,8.00
2022-12-28T10:10:24.326Z,7.60
2022-12-28T10:12:53.238Z,7.10
2022-12-28T10:15:27.267Z,6.80
2022-12-28T10:17:56.021Z,6.40
2022-12-28T10:20:24.755Z,6.10
2022-12-28T10:22:56.981Z,5.80
2022-12-28T10:25:27.910Z,5.80
2022-12-28T10:27:56.860Z,6.10
2022-12-28T10:30:27.912Z,6.60
2022-12-28T10:33:02.610Z,7.30
2022-12-28T10:35:37.434Z,8.00
2022-12-28T10:38:08.594Z,8.70
2022-12-28T10:40:39.970Z,9.30
2022-12-28T10:43:19.223Z,9.60
2022-12-28T10:45:52.079Z,9.80
2022-12-28T10:48:23.763Z,9.90
2022-12-28T10:50:55.010Z,9.80
2022-12-28T10:53:29.158Z,9.70
2022-12-28T10:56:07.858Z,9.70
2022-12-28T10:58:36.339Z,9.60
2022-12-28T11:01:08.347Z,9.70
2022-12-28T11:03:38.832Z,9.90
2022-12-28T11:06:12.602Z,10.30
2022-12-28T11:08:42.727Z,10.80
2022-12-28T11:11:20.608Z,11.40
2022-12-28T11:13:52.664Z,11.90
2022-12-28T11:16:22.712Z,12.40
2022-12-28T11:18:51.734Z,12.60
2022-12-28T11:21:22.205Z,12.70
2022-12-28T11:23:53.257Z,12.70
2022-12-28T11:26:22.686Z,12.70
2022-12-28T11:28:53.108Z,12.60
2022-12-28T11:31:27.390Z,12.50
2022-12-28T11:33:59.876Z,12.50
2022-12-28T11:36:29.231Z,12.30
2022-12-28T11:38:57.902Z,12.10
2022-12-28T11:42:19.024Z,11.80
2022-12-28T11:44:52.884Z,11.40
2022-12-28T11:47:32.896Z,10.90
2022-12-28T11:50:42.510Z,10.50
2022-12-28T11:53:44.646Z,10.10
2022-12-28T11:56:13.507Z,9.60
2022-12-28T11:58:47.909Z,9.20
2022-12-28T12:01:47.042Z,8.90
2022-12-28T12:04:46.291Z,8.60
2022-12-28T12:07:46.474Z,8.40
2022-12-28T12:10:34.307Z,8.20
2022-12-28T12:13:24.897Z,8.10
2022-12-28T12:15:56.779Z,8.00
2022-12-28T12:18:27.836Z,8.10
2022-12-28T12:21:04.031Z,8.30
2022-12-28T12:23:47.406Z,8.50
2022-12-28T12:26:28.205Z,8.90
2022-12-28T12:29:00.426Z,9.20
2022-12-28T12:31:32.479Z,9.50
2022-12-28T12:34:07.092Z,9.80
2022-12-28T12:37:22.151Z,10.00
2022-12-28T12:40:16.968Z,10.10
2022-12-28T12:42:59.047Z,10.30
2022-12-28T12:45:36.690Z,10.50
2022-12-28T12:48:35.510Z,10.60
2022-12-28T12:51:20.052Z,10.90
2022-12-28T12:54:06.236Z,11.10
2022-12-28T12:56:46.039Z,11.40
2022-12-28T12:59:37.649Z,11.70
2022-12-28T13:02:32.971Z,12.10
2022-12-28T13:05:04.456Z,12.30
2022-12-28T13:07:33.581Z,12.40
2022-12-28T13:10:05.607Z,12.30
2022-12-28T13:12:34.063Z,12.10
2022-12-28T13:15:10.794Z,11.70
2022-12-28T13:17:41.186Z,11.40
2022-12-28T13:20:18.542Z,10.90
2022-12-28T13:22:48.397Z,10.50
2022-12-28T13:25:27.200Z,10.10
2022-12-28T13:27:56.496Z,9.80
2022-12-28T13:30:25.980Z,9.40
2022-12-28T13:32:56.860Z,9.10
2022-12-28T13:35:27.812Z,8.80
2022-12-28T13:38:04.735Z,8.50
2022-12-28T13:40:35.092Z,8.30
2022-12-28T13:43:53.920Z,8.10
2022-12-28T13:46:23.580Z,8.10
2022-12-28T13:48:55.208Z,8.10
2022-12-28T13:51:23.573Z,8.30
2022-12-28T13:53:58.429Z,8.40
2022-12-28T13:56:29.063Z,8.40
2022-12-28T13:59:02.658Z,8.30
2022-12-28T14:01:36.771Z,8.20
2022-12-28T14:04:50.466Z,8.00
2022-12-28T14:06:56.758Z,7.80
2022-12-28T14:09:25.482Z,7.60
2022-12-28T14:11:55.491Z,7.50
2022-12-28T14:14:24.051Z,7.30
2022-12-28T14:16:52.749Z,7.20
2022-12-28T14:19:21.276Z,7.00
2022-12-28T14:21:51.480Z,6.90
2022-12-28T14:24:20.091Z,6.80
2022-12-28T14:26:51.162Z,6.70
2022-12-28T14:29:25.250Z,6.60
2022-12-28T14:31:58.642Z,6.50
2022-12-28T14:34:30.493Z,6.40
2022-12-28T14:37:00.120Z,6.30
2022-12-28T14:39:34.619Z,6.20
2022-12-28T14:42:04.944Z,6.20
2022-12-28T14:44:40.100Z,6.10
2022-12-28T14:47:44.609Z,6.00
2022-12-28T14:50:19.071Z,5.90
2022-12-28T14:52:49.776Z,5.80
2022-12-28T14:55:28.584Z,5.80
2022-12-28T14:58:01.131Z,5.70
2022-12-28T15:00:33.283Z,5.60
2022-12-28T15:03:16.365Z,5.60
2022-12-28T15:05:47.841Z,5.50
2022-12-28T15:08:16.192Z,5.40
2022-12-28T15:10:49.599Z,5.40
2022-12-28T15:13:20.838Z,5.30
2022-12-28T15:15:58.127Z,5.30
2022-12-28T15:18:27.374Z,5.20
2022-12-28T15:20:56.754Z,5.20
2022-12-28T15:23:25.609Z,5.20
2022-12-28T15:25:54.039Z,5.10
2022-12-28T15:28:22.484Z,5.10
2022-12-28T15:30:50.758Z,5.10
2022-12-28T15:33:20.436Z,5.00
2022-12-28T15:35:48.764Z,5.00
2022-12-28T15:38:17.184Z,5.00
2022-12-28T15:40:45.630Z,5.00
2022-12-28T15:43:13.990Z,5.00
2022-12-28T15:45:42.325Z,5.00
2022-12-28T15:48:10.675Z,4.90
2022-12-28T15:50:40.321Z,4.90
2022-12-28T15:53:08.622Z,4.90
2022-12-28T15:55:37.066Z,4.90
2022-12-28T15:58:05.467Z,4.80
2022-12-28T16:00:33.878Z,4.80
2022-12-28T16:03:02.582Z,4.80
2022-12-28T16:05:32.550Z,4.80
2022-12-28T16:08:02.238Z,4.70
2022-12-28T16:10:30.539Z,4.70
2022-12-28T16:12:58.946Z,4.70
2022-12-28T16:15:28.069Z,4.60
2022-12-28T16:17:57.655Z,4.60
2022-12-28T16:20:26.238Z,4.60
2022-12-28T16:22:54.818Z,4.50
2022-12-28T16:25:24.500Z,4.50
2022-12-28T16:27:52.919Z,4.50
2022-12-28T16:30:21.192Z,4.40
2022-12-28T16:32:49.648Z,4.40
2022-12-28T16:35:18.087Z,4.30
2022-12-28T16:37:46.443Z,4.20
2022-12-28T16:40:14.870Z,4.20
2022-12-28T16:42:46.100Z,4.10
2022-12-28T16:45:15.072Z,4.10
2022-12-28T16:47:45.109Z,4.00
2022-12-28T16:50:13.783Z,4.00
2022-12-28T16:52:42.115Z,4.00
2022-12-28T16:55:10.682Z,4.00
2022-12-28T16:57:39.009Z,4.00
2022-12-28T17:00:09.799Z,4.00
2022-12-28T17:02:38.419Z,3.90
2022-12-28T17:05:07.639Z,3.90
2022-12-28T17:07:36.010Z,3.90
2022-12-28T17:10:04.399Z,3.90
2022-12-28T17:12:35.009Z,3.80
2022-12-28T17:15:06.807Z,3.80
2022-12-28T17:17:36.431Z,3.80
2022-12-28T17:20:06.214Z,3.80
2022-12-28T17:22:34.582Z,3.80
2022-12-28T17:25:03.103Z,3.70
2022-12-28T17:27:31.697Z,3.70
2022-12-28T17:30:00.195Z,3.70
2022-12-28T17:32:28.571Z,3.70
2022-12-28T17:34:58.287Z,3.70
2022-12-28T17:37:26.803Z,3.60
2022-12-28T17:39:56.228Z,3.60
2022-12-28T17:42:24.602Z,3.60
2022-12-28T17:44:52.938Z,3.50
2022-12-28T17:47:21.320Z,3.50
2022-12-28T17:49:49.628Z,3.50
2022-12-28T17:52:21.813Z,3.50
2022-12-28T17:54:50.579Z,3.40
2022-12-28T17:57:19.252Z,3.40
2022-12-28T17:59:47.601Z,3.30
2022-12-28T18:02:16.169Z,3.30
2022-12-28T18:04:44.681Z,3.30
2022-12-28T18:07:13.070Z,3.20
2022-12-28T18:09:42.739Z,3.20
2022-12-28T18:12:11.200Z,3.20
2022-12-28T18:14:39.540Z,3.10
2022-12-28T18:17:08.019Z,3.10
2022-12-28T18:19:36.428Z,3.10
2022-12-28T18:22:05.185Z,3.10
2022-12-28T18:24:33.841Z,3.10
2022-12-28T18:27:03.607Z,3.10
2022-12-28T18:29:31.947Z,3.10
2022-12-28T18:32:00.232Z,3.10
2022-12-28T18:34:28.627Z,3.00
2022-12-28T18:36:57.013Z,3.00
2022-12-28T18:39:25.330Z,3.00
2022-12-28T18:41:53.663Z,3.00
2022-12-28T18:44:23.412Z,3.00
2022-12-28T18:46:52.963Z,3.00
2022-12-28T18:49:21.857Z,3.00
2022-12-28T18:51:50.287Z,3.00
2022-12-28T18:54:18.612Z,3.00
2022-12-28T18:56:47.013Z,3.00
2022-12-28T18:59:15.418Z,2.90
2022-12-28T19:04:33.990Z,2.90
2022-12-28T19:07:02.516Z,2.90
2022-12-28T19:09:30.871Z,2.90
2022-12-28T19:11:59.999Z,2.90
2022-12-28T19:14:28.357Z,2.80
2022-12-28T19:16:58.013Z,2.80
2022-12-28T19:19:26.593Z,2.80
2022-12-28T19:21:58.580Z,2.80
2022-12-28T19:24:27.238Z,2.80
2022-12-28T19:26:55.548Z,2.80
2022-12-28T19:29:24.798Z,2.80
2022-12-28T19:31:53.194Z,2.80
2022-12-28T19:34:22.867Z,2.80
2022-12-28T19:36:51.218Z,2.80
2022-12-28T19:39:19.797Z,2.80
2022-12-28T19:41:48.184Z,2.80
2022-12-28T19:44:20.262Z,2.80
2022-12-28T19:46:49.418Z,2.80
2022-12-28T19:49:17.865Z,2.70
2022-12-28T19:51:47.675Z,2.70
2022-12-28T19:54:16.030Z,2.70
2022-12-28T19:56:44.715Z,2.70
2022-12-28T19:59:13.039Z,2.60
2022-12-28T20:01:41.599Z,2.60
2022-12-28T20:04:14.003Z,2.60
2022-12-28T20:06:44.112Z,2.60
2022-12-28T20:09:15.312Z,2.50
2022-12-28T20:11:45.065Z,2.50
2022-12-28T20:14:16.404Z,2.50
2022-12-28T20:16:51.919Z,2.50
2022-12-28T20:19:20.321Z,2.50
2022-12-28T20:21:49.650Z,2.50
2022-12-28T20:24:21.595Z,2.40
2022-12-28T20:26:50.205Z,2.40
2022-12-28T20:29:18.528Z,2.40
2022-12-28T20:31:46.947Z,2.30
2022-12-28T20:34:15.388Z,2.30
2022-12-28T20:36:43.797Z,2.30
2022-12-28T20:39:12.237Z,2.30
2022-12-28T20:41:59.601Z,2.30
2022-12-28T20:44:31.294Z,2.30
2022-12-28T20:47:01.746Z,2.20
2022-12-28T20:49:31.671Z,2.20
2022-12-28T20:52:00.049Z,2.20
2022-12-28T20:54:28.581Z,2.20
2022-12-28T20:56:58.200Z,2.20
2022-12-28T20:59:26.852Z,2.20
2022-12-28T21:01:55.658Z,2.10
2022-12-28T21:04:25.120Z,2.10
2022-12-28T21:06:54.186Z,2.10
2022-12-28T21:09:23.051Z,2.10
2022-12-28T21:11:53.638Z,2.00
2022-12-28T21:14:23.398Z,2.00
2022-12-28T21:16:51.793Z,2.00
2022-12-28T21:19:20.299Z,2.00
2022-12-28T21:21:49.598Z,2.00
2022-12-28T21:24:17.970Z,1.90
2022-12-28T21:26:46.374Z,1.90
2022-12-28T21:29:16.845Z,1.90
2022-12-28T21:31:51.675Z,1.90
2022-12-28T21:34:20.120Z,1.90
2022-12-28T21:36:48.456Z,1.90
2022-12-28T21:39:16.866Z,1.90
2022-12-28T21:41:51.294Z,1.90
2022-12-28T21:44:22.121Z,1.80
2022-12-28T21:46:53.122Z,1.80
2022-12-28T21:49:22.168Z,1.80
2022-12-28T21:51:51.571Z,1.80
2022-12-28T21:54:21.753Z,1.70
2022-12-28T21:56:53.229Z,1.70
2022-12-28T21:59:22.564Z,1.70
2022-12-28T22:02:10.451Z,1.60
2022-12-28T22:05:02.161Z,1.60
2022-12-28T22:07:32.209Z,1.60
2022-12-28T22:10:18.075Z,1.50
2022-12-28T22:12:46.525Z,1.50
2022-12-28T22:15:34.998Z,1.50
2022-12-28T22:18:06.691Z,1.50
2022-12-28T22:20:36.536Z,1.50
2022-12-28T22:23:07.071Z,1.40
2022-12-28T22:25:35.791Z,1.40
2022-12-28T22:28:04.959Z,1.40
2022-12-28T22:30:34.089Z,1.40
2022-12-28T22:33:02.518Z,1.30
2022-12-28T22:35:32.236Z,1.30
2022-12-28T22:38:01.086Z,1.30
2022-12-28T22:40:29.582Z,1.30
2022-12-28T22:42:57.959Z,1.30
2022-12-28T22:45:26.550Z,1.30
2022-12-28T22:47:59.392Z,1.30
2022-12-28T22:50:28.658Z,1.30
2022-12-28T22:52:58.616Z,1.30
2022-12-28T22:55:26.990Z,1.30
2022-12-28T22:57:55.420Z,1.30
2022-12-28T23:00:23.964Z,1.30
2022-12-28T23:02:52.379Z,1.30
2022-12-28T23:05:20.942Z,1.30
2022-12-28T23:07:49.364Z,1.30
2022-12-28T23:10:19.065Z,1.30
2022-12-28T23:12:47.483Z,1.30
2022-12-28T23:15:19.965Z,1.30
2022-12-28T23:17:49.342Z,1.30
2022-12-28T23:20:36.014Z,1.20
2022-12-28T23:23:22.302Z,1.20
2022-12-28T23:26:09.252Z,1.20
2022-12-28T23:28:37.586Z,1.20
2022-12-28T23:31:06.527Z,1.10
2022-12-28T23:33:36.725Z,1.10
2022-12-28T23:36:06.117Z,1.10
2022-12-28T23:38:34.550Z,1.10
2022-12-28T23:41:28.709Z,1.10
2022-12-28T23:43:57.162Z,1.10
2022-12-28T23:46:25.556Z,1.10
2022-12-28T23:48:53.849Z,1.00
2022-12-28T23:51:22.172Z,1.00
2022-12-28T23:53:50.500Z,1.00
2022-12-28T23:56:20.186Z,1.00
2022-12-28T23:58:50.790Z,1.00
